sensor_id;sensor_type;location;lat;lon;timestamp;P1;durP1;ratioP1;P2;durP2;ratioP2
23990;SDS011;12205;50.600;4.608;2023-07-20T00:02:03;5.40;;;0.70;;
23990;SDS011;12205;50.600;4.608;2023-07-20T00:04:32;5.13;;;0.75;;
23990;SDS011;12205;50.600;4.608;2023-07-20T00:06:59;4.30;;;0.70;;
23990;SDS011;12205;50.600;4.608;2023-07-20T00:09:27;4.60;;;0.75;;
23990;SDS011;12205;50.600;4.608;2023-07-20T00:11:55;4.45;;;0.70;;
23990;SDS011;12205;50.600;4.608;2023-07-20T00:14:23;4.90;;;0.75;;
23990;SDS011;12205;50.600;4.608;2023-07-20T00:16:50;3.45;;;0.60;;
23990;SDS011;12205;50.600;4.608;2023-07-20T00:19:21;5.18;;;1.00;;
23990;SDS011;12205;50.600;4.608;2023-07-20T00:21:49;4.25;;;1.15;;
23990;SDS011;12205;50.600;4.608;2023-07-20T00:24:16;6.10;;;0.80;;
23990;SDS011;12205;50.600;4.608;2023-07-20T00:26:43;7.57;;;0.82;;
23990;SDS011;12205;50.600;4.608;2023-07-20T00:29:12;6.93;;;0.70;;
23990;SDS011;12205;50.600;4.608;2023-07-20T00:31:40;3.78;;;0.68;;
23990;SDS011;12205;50.600;4.608;2023-07-20T00:34:08;3.63;;;0.60;;
23990;SDS011;12205;50.600;4.608;2023-07-20T00:36:35;5.78;;;0.70;;
23990;SDS011;12205;50.600;4.608;2023-07-20T00:39:02;3.33;;;0.50;;
23990;SDS011;12205;50.600;4.608;2023-07-20T00:41:30;4.38;;;0.70;;
23990;SDS011;12205;50.600;4.608;2023-07-20T00:43:58;4.55;;;0.75;;
23990;SDS011;12205;50.600;4.608;2023-07-20T00:46:26;3.92;;;0.80;;
23990;SDS011;12205;50.600;4.608;2023-07-20T00:48:53;3.60;;;0.50;;
23990;SDS011;12205;50.600;4.608;2023-07-20T00:51:21;4.88;;;0.70;;
23990;SDS011;12205;50.600;4.608;2023-07-20T00:53:51;2.65;;;0.80;;
23990;SDS011;12205;50.600;4.608;2023-07-20T00:56:19;2.50;;;0.43;;
23990;SDS011;12205;50.600;4.608;2023-07-20T00:58:48;3.38;;;0.63;;
23990;SDS011;12205;50.600;4.608;2023-07-20T01:01:15;3.42;;;0.70;;
23990;SDS011;12205;50.600;4.608;2023-07-20T01:03:43;7.40;;;0.60;;
23990;SDS011;12205;50.600;4.608;2023-07-20T01:06:14;5.40;;;0.88;;
23990;SDS011;12205;50.600;4.608;2023-07-20T01:08:57;8.10;;;0.77;;
23990;SDS011;12205;50.600;4.608;2023-07-20T01:11:38;4.95;;;0.70;;
23990;SDS011;12205;50.600;4.608;2023-07-20T01:14:18;5.30;;;0.95;;
23990;SDS011;12205;50.600;4.608;2023-07-20T01:16:46;5.78;;;1.00;;
23990;SDS011;12205;50.600;4.608;2023-07-20T01:19:16;4.32;;;1.23;;
23990;SDS011;12205;50.600;4.608;2023-07-20T01:21:44;3.38;;;0.90;;
23990;SDS011;12205;50.600;4.608;2023-07-20T01:24:27;6.43;;;1.00;;
23990;SDS011;12205;50.600;4.608;2023-07-20T01:27:20;6.35;;;0.88;;
23990;SDS011;12205;50.600;4.608;2023-07-20T01:30:15;6.38;;;0.77;;
23990;SDS011;12205;50.600;4.608;2023-07-20T01:32:56;5.38;;;0.80;;
23990;SDS011;12205;50.600;4.608;2023-07-20T01:35:26;6.35;;;0.88;;
23990;SDS011;12205;50.600;4.608;2023-07-20T01:37:56;7.22;;;0.82;;
23990;SDS011;12205;50.600;4.608;2023-07-20T01:40:26;4.55;;;0.70;;
23990;SDS011;12205;50.600;4.608;2023-07-20T01:42:54;8.73;;;1.20;;
23990;SDS011;12205;50.600;4.608;2023-07-20T01:45:21;4.07;;;0.90;;
23990;SDS011;12205;50.600;4.608;2023-07-20T01:47:48;5.45;;;1.20;;
23990;SDS011;12205;50.600;4.608;2023-07-20T01:50:17;6.85;;;0.93;;
23990;SDS011;12205;50.600;4.608;2023-07-20T01:52:44;4.32;;;0.90;;
23990;SDS011;12205;50.600;4.608;2023-07-20T01:55:11;7.07;;;1.05;;
23990;SDS011;12205;50.600;4.608;2023-07-20T01:57:39;9.23;;;1.10;;
23990;SDS011;12205;50.600;4.608;2023-07-20T02:00:06;10.85;;;1.20;;
23990;SDS011;12205;50.600;4.608;2023-07-20T02:02:41;8.88;;;1.15;;
23990;SDS011;12205;50.600;4.608;2023-07-20T02:05:09;5.60;;;1.00;;
23990;SDS011;12205;50.600;4.608;2023-07-20T02:07:38;6.65;;;0.93;;
23990;SDS011;12205;50.600;4.608;2023-07-20T02:10:05;4.28;;;0.90;;
23990;SDS011;12205;50.600;4.608;2023-07-20T02:12:34;10.23;;;0.95;;
23990;SDS011;12205;50.600;4.608;2023-07-20T02:15:02;9.73;;;1.15;;
23990;SDS011;12205;50.600;4.608;2023-07-20T02:17:30;7.50;;;1.35;;
23990;SDS011;12205;50.600;4.608;2023-07-20T02:19:57;4.82;;;0.77;;
23990;SDS011;12205;50.600;4.608;2023-07-20T02:22:24;6.80;;;0.80;;
23990;SDS011;12205;50.600;4.608;2023-07-20T02:24:53;11.55;;;1.48;;
23990;SDS011;12205;50.600;4.608;2023-07-20T02:27:20;10.02;;;1.33;;
23990;SDS011;12205;50.600;4.608;2023-07-20T02:29:47;5.38;;;0.82;;
23990;SDS011;12205;50.600;4.608;2023-07-20T02:32:15;11.35;;;1.50;;
23990;SDS011;12205;50.600;4.608;2023-07-20T02:34:42;6.65;;;1.05;;
23990;SDS011;12205;50.600;4.608;2023-07-20T02:37:09;8.50;;;1.25;;
23990;SDS011;12205;50.600;4.608;2023-07-20T02:39:38;6.40;;;1.10;;
23990;SDS011;12205;50.600;4.608;2023-07-20T02:42:06;8.77;;;0.98;;
23990;SDS011;12205;50.600;4.608;2023-07-20T02:44:33;8.25;;;1.05;;
23990;SDS011;12205;50.600;4.608;2023-07-20T02:47:01;4.50;;;0.95;;
23990;SDS011;12205;50.600;4.608;2023-07-20T02:49:28;8.18;;;1.10;;
23990;SDS011;12205;50.600;4.608;2023-07-20T02:51:55;12.32;;;1.60;;
23990;SDS011;12205;50.600;4.608;2023-07-20T02:54:22;6.25;;;1.30;;
23990;SDS011;12205;50.600;4.608;2023-07-20T02:56:49;7.97;;;1.20;;
23990;SDS011;12205;50.600;4.608;2023-07-20T02:59:18;6.70;;;1.25;;
23990;SDS011;12205;50.600;4.608;2023-07-20T03:01:47;8.75;;;1.40;;
23990;SDS011;12205;50.600;4.608;2023-07-20T03:04:14;8.32;;;1.20;;
23990;SDS011;12205;50.600;4.608;2023-07-20T03:06:42;11.88;;;1.50;;
23990;SDS011;12205;50.600;4.608;2023-07-20T03:09:09;7.75;;;1.17;;
23990;SDS011;12205;50.600;4.608;2023-07-20T03:11:37;11.15;;;1.30;;
23990;SDS011;12205;50.600;4.608;2023-07-20T03:14:04;10.00;;;1.50;;
23990;SDS011;12205;50.600;4.608;2023-07-20T03:16:32;7.95;;;1.50;;
23990;SDS011;12205;50.600;4.608;2023-07-20T03:19:00;10.38;;;1.52;;
23990;SDS011;12205;50.600;4.608;2023-07-20T03:21:28;12.55;;;1.63;;
23990;SDS011;12205;50.600;4.608;2023-07-20T03:23:55;9.52;;;1.42;;
23990;SDS011;12205;50.600;4.608;2023-07-20T03:26:22;10.68;;;1.73;;
23990;SDS011;12205;50.600;4.608;2023-07-20T03:28:50;6.50;;;1.40;;
23990;SDS011;12205;50.600;4.608;2023-07-20T03:31:17;5.10;;;1.23;;
23990;SDS011;12205;50.600;4.608;2023-07-20T03:33:46;8.48;;;1.10;;
23990;SDS011;12205;50.600;4.608;2023-07-20T03:36:13;5.95;;;1.40;;
23990;SDS011;12205;50.600;4.608;2023-07-20T03:38:40;14.30;;;2.20;;
23990;SDS011;12205;50.600;4.608;2023-07-20T03:41:07;15.57;;;1.90;;
23990;SDS011;12205;50.600;4.608;2023-07-20T03:43:34;4.30;;;1.00;;
23990;SDS011;12205;50.600;4.608;2023-07-20T03:46:01;8.90;;;1.63;;
23990;SDS011;12205;50.600;4.608;2023-07-20T03:48:32;7.87;;;1.63;;
23990;SDS011;12205;50.600;4.608;2023-07-20T03:51:01;7.53;;;1.38;;
23990;SDS011;12205;50.600;4.608;2023-07-20T03:53:29;7.35;;;1.40;;
23990;SDS011;12205;50.600;4.608;2023-07-20T03:55:57;9.38;;;1.48;;
23990;SDS011;12205;50.600;4.608;2023-07-20T03:58:24;9.23;;;1.95;;
23990;SDS011;12205;50.600;4.608;2023-07-20T04:00:51;11.30;;;2.15;;
23990;SDS011;12205;50.600;4.608;2023-07-20T04:03:18;10.13;;;1.60;;
23990;SDS011;12205;50.600;4.608;2023-07-20T04:05:48;12.40;;;2.08;;
23990;SDS011;12205;50.600;4.608;2023-07-20T04:08:16;9.93;;;1.90;;
23990;SDS011;12205;50.600;4.608;2023-07-20T04:10:44;12.07;;;2.30;;
23990;SDS011;12205;50.600;4.608;2023-07-20T04:13:11;8.68;;;1.65;;
23990;SDS011;12205;50.600;4.608;2023-07-20T04:15:39;10.98;;;2.10;;
23990;SDS011;12205;50.600;4.608;2023-07-20T04:18:06;9.55;;;1.65;;
23990;SDS011;12205;50.600;4.608;2023-07-20T04:20:33;9.82;;;2.33;;
23990;SDS011;12205;50.600;4.608;2023-07-20T04:23:00;13.13;;;2.47;;
23990;SDS011;12205;50.600;4.608;2023-07-20T04:25:29;18.48;;;2.45;;
23990;SDS011;12205;50.600;4.608;2023-07-20T04:28:04;7.40;;;2.08;;
23990;SDS011;12205;50.600;4.608;2023-07-20T04:30:36;12.93;;;2.75;;
23990;SDS011;12205;50.600;4.608;2023-07-20T04:33:04;11.80;;;2.25;;
23990;SDS011;12205;50.600;4.608;2023-07-20T04:35:50;13.32;;;2.50;;
23990;SDS011;12205;50.600;4.608;2023-07-20T04:38:33;9.88;;;2.35;;
23990;SDS011;12205;50.600;4.608;2023-07-20T04:41:11;10.38;;;2.58;;
23990;SDS011;12205;50.600;4.608;2023-07-20T04:43:41;12.13;;;2.70;;
23990;SDS011;12205;50.600;4.608;2023-07-20T04:46:10;11.15;;;2.60;;
23990;SDS011;12205;50.600;4.608;2023-07-20T04:48:40;12.40;;;2.40;;
23990;SDS011;12205;50.600;4.608;2023-07-20T04:51:07;11.18;;;2.90;;
23990;SDS011;12205;50.600;4.608;2023-07-20T04:53:35;10.73;;;3.20;;
23990;SDS011;12205;50.600;4.608;2023-07-20T04:56:03;13.70;;;3.28;;
23990;SDS011;12205;50.600;4.608;2023-07-20T04:58:32;9.00;;;2.80;;
23990;SDS011;12205;50.600;4.608;2023-07-20T05:00:59;15.80;;;3.85;;
23990;SDS011;12205;50.600;4.608;2023-07-20T05:03:26;9.73;;;3.05;;
23990;SDS011;12205;50.600;4.608;2023-07-20T05:05:54;12.18;;;2.67;;
23990;SDS011;12205;50.600;4.608;2023-07-20T05:08:21;10.05;;;3.05;;
23990;SDS011;12205;50.600;4.608;2023-07-20T05:10:48;11.13;;;3.17;;
23990;SDS011;12205;50.600;4.608;2023-07-20T05:13:16;12.60;;;3.30;;
23990;SDS011;12205;50.600;4.608;2023-07-20T05:15:44;14.50;;;3.70;;
23990;SDS011;12205;50.600;4.608;2023-07-20T05:18:15;13.15;;;3.58;;
23990;SDS011;12205;50.600;4.608;2023-07-20T05:20:45;12.27;;;3.60;;
23990;SDS011;12205;50.600;4.608;2023-07-20T05:23:13;15.10;;;3.80;;
23990;SDS011;12205;50.600;4.608;2023-07-20T05:25:41;9.15;;;2.53;;
23990;SDS011;12205;50.600;4.608;2023-07-20T05:28:09;16.27;;;3.67;;
23990;SDS011;12205;50.600;4.608;2023-07-20T05:30:36;16.75;;;3.63;;
23990;SDS011;12205;50.600;4.608;2023-07-20T05:33:04;14.95;;;3.65;;
23990;SDS011;12205;50.600;4.608;2023-07-20T05:35:31;18.70;;;4.30;;
23990;SDS011;12205;50.600;4.608;2023-07-20T05:37:58;14.90;;;4.35;;
23990;SDS011;12205;50.600;4.608;2023-07-20T05:40:25;12.82;;;4.28;;
23990;SDS011;12205;50.600;4.608;2023-07-20T05:42:53;14.88;;;4.30;;
23990;SDS011;12205;50.600;4.608;2023-07-20T05:45:22;16.08;;;3.97;;
23990;SDS011;12205;50.600;4.608;2023-07-20T05:47:49;13.80;;;4.00;;
23990;SDS011;12205;50.600;4.608;2023-07-20T05:50:17;19.55;;;4.65;;
23990;SDS011;12205;50.600;4.608;2023-07-20T05:52:45;13.77;;;3.85;;
23990;SDS011;12205;50.600;4.608;2023-07-20T05:55:12;13.02;;;4.57;;
23990;SDS011;12205;50.600;4.608;2023-07-20T05:57:40;11.07;;;3.75;;
23990;SDS011;12205;50.600;4.608;2023-07-20T06:00:08;13.57;;;3.92;;
23990;SDS011;12205;50.600;4.608;2023-07-20T06:02:37;15.25;;;4.28;;
23990;SDS011;12205;50.600;4.608;2023-07-20T06:05:05;14.60;;;4.00;;
23990;SDS011;12205;50.600;4.608;2023-07-20T06:07:36;11.20;;;4.03;;
23990;SDS011;12205;50.600;4.608;2023-07-20T06:10:03;19.40;;;4.30;;
23990;SDS011;12205;50.600;4.608;2023-07-20T06:12:32;11.35;;;4.47;;
23990;SDS011;12205;50.600;4.608;2023-07-20T06:15:01;12.40;;;4.22;;
23990;SDS011;12205;50.600;4.608;2023-07-20T06:17:30;11.55;;;4.03;;
23990;SDS011;12205;50.600;4.608;2023-07-20T06:19:58;11.98;;;4.03;;
23990;SDS011;12205;50.600;4.608;2023-07-20T06:22:25;13.43;;;4.20;;
23990;SDS011;12205;50.600;4.608;2023-07-20T06:24:53;11.63;;;3.90;;
23990;SDS011;12205;50.600;4.608;2023-07-20T06:27:20;14.45;;;4.03;;
23990;SDS011;12205;50.600;4.608;2023-07-20T06:29:47;14.07;;;4.22;;
23990;SDS011;12205;50.600;4.608;2023-07-20T06:32:14;13.65;;;4.22;;
23990;SDS011;12205;50.600;4.608;2023-07-20T06:34:41;9.00;;;3.38;;
23990;SDS011;12205;50.600;4.608;2023-07-20T06:37:08;12.35;;;3.95;;
23990;SDS011;12205;50.600;4.608;2023-07-20T06:39:36;10.60;;;3.90;;
23990;SDS011;12205;50.600;4.608;2023-07-20T06:42:05;18.63;;;4.88;;
23990;SDS011;12205;50.600;4.608;2023-07-20T06:44:33;11.95;;;4.18;;
23990;SDS011;12205;50.600;4.608;2023-07-20T06:47:00;9.57;;;3.60;;
23990;SDS011;12205;50.600;4.608;2023-07-20T06:49:27;11.05;;;3.28;;
23990;SDS011;12205;50.600;4.608;2023-07-20T06:51:55;9.77;;;3.53;;
23990;SDS011;12205;50.600;4.608;2023-07-20T06:54:23;11.77;;;3.65;;
23990;SDS011;12205;50.600;4.608;2023-07-20T06:56:51;9.63;;;2.80;;
23990;SDS011;12205;50.600;4.608;2023-07-20T06:59:20;9.07;;;2.97;;
23990;SDS011;12205;50.600;4.608;2023-07-20T07:01:49;8.85;;;2.97;;
23990;SDS011;12205;50.600;4.608;2023-07-20T07:04:16;8.52;;;2.13;;
23990;SDS011;12205;50.600;4.608;2023-07-20T07:06:43;5.50;;;2.00;;
23990;SDS011;12205;50.600;4.608;2023-07-20T07:09:10;6.00;;;2.13;;
23990;SDS011;12205;50.600;4.608;2023-07-20T07:11:37;9.82;;;2.33;;
23990;SDS011;12205;50.600;4.608;2023-07-20T07:14:04;5.95;;;2.30;;
23990;SDS011;12205;50.600;4.608;2023-07-20T07:16:33;11.35;;;2.08;;
23990;SDS011;12205;50.600;4.608;2023-07-20T07:19:00;8.68;;;2.40;;
23990;SDS011;12205;50.600;4.608;2023-07-20T07:21:28;7.43;;;1.90;;
23990;SDS011;12205;50.600;4.608;2023-07-20T07:23:55;5.43;;;1.75;;
23990;SDS011;12205;50.600;4.608;2023-07-20T07:26:25;6.68;;;2.05;;
23990;SDS011;12205;50.600;4.608;2023-07-20T07:28:52;6.47;;;2.17;;
23990;SDS011;12205;50.600;4.608;2023-07-20T07:31:19;8.23;;;2.28;;
23990;SDS011;12205;50.600;4.608;2023-07-20T07:33:49;12.35;;;2.85;;
23990;SDS011;12205;50.600;4.608;2023-07-20T07:36:17;7.97;;;2.40;;
23990;SDS011;12205;50.600;4.608;2023-07-20T07:38:44;9.52;;;2.40;;
23990;SDS011;12205;50.600;4.608;2023-07-20T07:41:11;11.70;;;2.40;;
23990;SDS011;12205;50.600;4.608;2023-07-20T07:43:38;4.82;;;1.50;;
23990;SDS011;12205;50.600;4.608;2023-07-20T07:46:06;5.47;;;1.70;;
23990;SDS011;12205;50.600;4.608;2023-07-20T07:48:33;4.65;;;1.58;;
23990;SDS011;12205;50.600;4.608;2023-07-20T07:51:01;6.90;;;1.80;;
23990;SDS011;12205;50.600;4.608;2023-07-20T07:53:28;6.38;;;1.40;;
23990;SDS011;12205;50.600;4.608;2023-07-20T07:55:57;4.45;;;1.20;;
23990;SDS011;12205;50.600;4.608;2023-07-20T07:58:24;4.97;;;1.08;;
23990;SDS011;12205;50.600;4.608;2023-07-20T08:00:51;6.15;;;1.30;;
23990;SDS011;12205;50.600;4.608;2023-07-20T08:03:18;5.47;;;1.05;;
23990;SDS011;12205;50.600;4.608;2023-07-20T08:05:46;4.50;;;1.13;;
23990;SDS011;12205;50.600;4.608;2023-07-20T08:08:15;5.30;;;1.10;;
23990;SDS011;12205;50.600;4.608;2023-07-20T08:10:43;4.63;;;1.10;;
23990;SDS011;12205;50.600;4.608;2023-07-20T08:13:10;5.75;;;1.50;;
23990;SDS011;12205;50.600;4.608;2023-07-20T08:15:38;4.38;;;1.30;;
23990;SDS011;12205;50.600;4.608;2023-07-20T08:18:05;4.60;;;1.25;;
23990;SDS011;12205;50.600;4.608;2023-07-20T08:20:33;4.22;;;0.90;;
23990;SDS011;12205;50.600;4.608;2023-07-20T08:23:01;4.97;;;1.00;;
23990;SDS011;12205;50.600;4.608;2023-07-20T08:25:29;4.88;;;1.30;;
23990;SDS011;12205;50.600;4.608;2023-07-20T08:27:56;3.55;;;1.10;;
23990;SDS011;12205;50.600;4.608;2023-07-20T08:30:26;5.53;;;1.20;;
23990;SDS011;12205;50.600;4.608;2023-07-20T08:33:06;2.22;;;0.70;;
23990;SDS011;12205;50.600;4.608;2023-07-20T08:35:33;5.10;;;1.35;;
23990;SDS011;12205;50.600;4.608;2023-07-20T08:38:00;5.68;;;1.20;;
23990;SDS011;12205;50.600;4.608;2023-07-20T08:40:31;5.88;;;1.15;;
23990;SDS011;12205;50.600;4.608;2023-07-20T08:42:58;4.43;;;1.05;;
23990;SDS011;12205;50.600;4.608;2023-07-20T08:45:27;5.32;;;1.08;;
23990;SDS011;12205;50.600;4.608;2023-07-20T08:47:56;3.70;;;0.90;;
23990;SDS011;12205;50.600;4.608;2023-07-20T08:50:25;3.20;;;1.00;;
23990;SDS011;12205;50.600;4.608;2023-07-20T08:52:54;4.72;;;1.10;;
23990;SDS011;12205;50.600;4.608;2023-07-20T08:55:25;3.47;;;0.77;;
23990;SDS011;12205;50.600;4.608;2023-07-20T08:57:54;2.72;;;0.60;;
23990;SDS011;12205;50.600;4.608;2023-07-20T09:00:24;2.77;;;0.50;;
23990;SDS011;12205;50.600;4.608;2023-07-20T09:02:53;3.35;;;0.82;;
23990;SDS011;12205;50.600;4.608;2023-07-20T09:05:22;5.93;;;1.20;;
23990;SDS011;12205;50.600;4.608;2023-07-20T09:07:51;2.53;;;0.85;;
23990;SDS011;12205;50.600;4.608;2023-07-20T09:10:19;5.85;;;0.75;;
23990;SDS011;12205;50.600;4.608;2023-07-20T09:12:48;3.20;;;0.60;;
23990;SDS011;12205;50.600;4.608;2023-07-20T09:15:16;4.38;;;0.88;;
23990;SDS011;12205;50.600;4.608;2023-07-20T09:17:46;1.40;;;0.60;;
23990;SDS011;12205;50.600;4.608;2023-07-20T09:20:15;4.38;;;0.93;;
23990;SDS011;12205;50.600;4.608;2023-07-20T09:22:43;5.40;;;1.02;;
23990;SDS011;12205;50.600;4.608;2023-07-20T09:25:11;4.15;;;1.10;;
23990;SDS011;12205;50.600;4.608;2023-07-20T09:27:40;2.33;;;0.80;;
23990;SDS011;12205;50.600;4.608;2023-07-20T09:30:10;3.42;;;0.73;;
23990;SDS011;12205;50.600;4.608;2023-07-20T09:32:42;3.75;;;0.70;;
23990;SDS011;12205;50.600;4.608;2023-07-20T09:35:13;3.80;;;0.90;;
23990;SDS011;12205;50.600;4.608;2023-07-20T09:37:49;5.75;;;0.70;;
23990;SDS011;12205;50.600;4.608;2023-07-20T09:40:21;3.92;;;0.90;;
23990;SDS011;12205;50.600;4.608;2023-07-20T09:42:48;3.95;;;0.50;;
23990;SDS011;12205;50.600;4.608;2023-07-20T09:45:27;2.97;;;0.70;;
23990;SDS011;12205;50.600;4.608;2023-07-20T09:48:04;3.15;;;0.77;;
23990;SDS011;12205;50.600;4.608;2023-07-20T09:50:32;5.80;;;0.80;;
23990;SDS011;12205;50.600;4.608;2023-07-20T09:53:00;4.95;;;0.90;;
23990;SDS011;12205;50.600;4.608;2023-07-20T09:55:28;2.95;;;0.90;;
23990;SDS011;12205;50.600;4.608;2023-07-20T09:57:56;1.55;;;0.38;;
23990;SDS011;12205;50.600;4.608;2023-07-20T10:00:23;1.58;;;0.60;;
23990;SDS011;12205;50.600;4.608;2023-07-20T10:02:51;3.22;;;0.70;;
23990;SDS011;12205;50.600;4.608;2023-07-20T10:05:23;2.05;;;0.57;;
23990;SDS011;12205;50.600;4.608;2023-07-20T10:07:54;2.70;;;0.70;;
23990;SDS011;12205;50.600;4.608;2023-07-20T10:10:22;1.98;;;0.60;;
23990;SDS011;12205;50.600;4.608;2023-07-20T10:12:49;3.22;;;0.60;;
23990;SDS011;12205;50.600;4.608;2023-07-20T10:15:19;1.70;;;0.40;;
23990;SDS011;12205;50.600;4.608;2023-07-20T10:17:57;2.45;;;0.60;;
23990;SDS011;12205;50.600;4.608;2023-07-20T10:20:31;3.15;;;0.50;;
23990;SDS011;12205;50.600;4.608;2023-07-20T10:23:01;2.63;;;0.38;;
23990;SDS011;12205;50.600;4.608;2023-07-20T10:25:30;3.35;;;0.60;;
23990;SDS011;12205;50.600;4.608;2023-07-20T10:27:58;1.90;;;0.50;;
23990;SDS011;12205;50.600;4.608;2023-07-20T10:30:26;1.92;;;0.50;;
23990;SDS011;12205;50.600;4.608;2023-07-20T10:32:54;2.28;;;0.40;;
23990;SDS011;12205;50.600;4.608;2023-07-20T10:35:21;3.22;;;0.55;;
23990;SDS011;12205;50.600;4.608;2023-07-20T10:37:51;1.80;;;0.30;;
23990;SDS011;12205;50.600;4.608;2023-07-20T10:40:29;1.52;;;0.32;;
23990;SDS011;12205;50.600;4.608;2023-07-20T10:43:02;3.78;;;0.50;;
23990;SDS011;12205;50.600;4.608;2023-07-20T10:45:33;1.55;;;0.40;;
23990;SDS011;12205;50.600;4.608;2023-07-20T10:48:13;1.85;;;0.35;;
23990;SDS011;12205;50.600;4.608;2023-07-20T10:50:42;5.40;;;0.40;;
23990;SDS011;12205;50.600;4.608;2023-07-20T10:53:12;1.88;;;0.32;;
23990;SDS011;12205;50.600;4.608;2023-07-20T10:55:41;3.53;;;0.73;;
23990;SDS011;12205;50.600;4.608;2023-07-20T10:58:12;3.67;;;0.50;;
23990;SDS011;12205;50.600;4.608;2023-07-20T11:03:28;2.75;;;0.47;;
23990;SDS011;12205;50.600;4.608;2023-07-20T11:05:57;2.50;;;0.50;;
23990;SDS011;12205;50.600;4.608;2023-07-20T11:08:39;2.25;;;0.50;;
23990;SDS011;12205;50.600;4.608;2023-07-20T11:11:23;4.63;;;0.70;;
23990;SDS011;12205;50.600;4.608;2023-07-20T11:13:58;3.00;;;0.70;;
23990;SDS011;12205;50.600;4.608;2023-07-20T11:16:39;2.97;;;0.60;;
23990;SDS011;12205;50.600;4.608;2023-07-20T11:19:15;2.08;;;0.57;;
23990;SDS011;12205;50.600;4.608;2023-07-20T11:21:44;3.28;;;0.70;;
23990;SDS011;12205;50.600;4.608;2023-07-20T11:24:14;3.95;;;0.77;;
23990;SDS011;12205;50.600;4.608;2023-07-20T11:26:42;2.85;;;0.70;;
23990;SDS011;12205;50.600;4.608;2023-07-20T11:29:11;2.53;;;0.63;;
23990;SDS011;12205;50.600;4.608;2023-07-20T11:31:39;3.47;;;0.60;;
23990;SDS011;12205;50.600;4.608;2023-07-20T11:34:09;3.13;;;0.50;;
23990;SDS011;12205;50.600;4.608;2023-07-20T11:36:39;3.92;;;0.60;;
23990;SDS011;12205;50.600;4.608;2023-07-20T11:39:08;4.63;;;0.75;;
23990;SDS011;12205;50.600;4.608;2023-07-20T11:41:38;1.70;;;0.40;;
23990;SDS011;12205;50.600;4.608;2023-07-20T11:44:10;5.18;;;0.70;;
23990;SDS011;12205;50.600;4.608;2023-07-20T11:46:41;4.70;;;0.52;;
23990;SDS011;12205;50.600;4.608;2023-07-20T11:49:09;1.67;;;0.50;;
23990;SDS011;12205;50.600;4.608;2023-07-20T11:51:37;3.13;;;0.60;;
23990;SDS011;12205;50.600;4.608;2023-07-20T11:54:07;5.22;;;0.60;;
23990;SDS011;12205;50.600;4.608;2023-07-20T11:56:36;2.83;;;0.50;;
23990;SDS011;12205;50.600;4.608;2023-07-20T11:59:07;1.38;;;0.40;;
23990;SDS011;12205;50.600;4.608;2023-07-20T12:01:35;1.80;;;0.50;;
23990;SDS011;12205;50.600;4.608;2023-07-20T12:04:02;3.75;;;0.40;;
23990;SDS011;12205;50.600;4.608;2023-07-20T12:06:32;5.68;;;0.30;;
23990;SDS011;12205;50.600;4.608;2023-07-20T12:08:59;5.05;;;0.30;;
23990;SDS011;12205;50.600;4.608;2023-07-20T12:11:30;2.92;;;0.40;;
23990;SDS011;12205;50.600;4.608;2023-07-20T12:14:00;2.55;;;0.40;;
23990;SDS011;12205;50.600;4.608;2023-07-20T12:16:28;2.47;;;0.40;;
23990;SDS011;12205;50.600;4.608;2023-07-20T12:19:00;1.65;;;0.40;;
23990;SDS011;12205;50.600;4.608;2023-07-20T12:21:28;4.07;;;0.30;;
23990;SDS011;12205;50.600;4.608;2023-07-20T12:23:56;0.93;;;0.30;;
23990;SDS011;12205;50.600;4.608;2023-07-20T12:26:24;3.28;;;0.20;;
23990;SDS011;12205;50.600;4.608;2023-07-20T12:28:52;5.90;;;0.30;;
23990;SDS011;12205;50.600;4.608;2023-07-20T12:31:21;1.25;;;0.20;;
23990;SDS011;12205;50.600;4.608;2023-07-20T12:33:49;1.15;;;0.20;;
23990;SDS011;12205;50.600;4.608;2023-07-20T12:36:17;1.27;;;0.20;;
23990;SDS011;12205;50.600;4.608;2023-07-20T12:38:45;2.17;;;0.20;;
23990;SDS011;12205;50.600;4.608;2023-07-20T12:41:12;1.80;;;0.32;;
23990;SDS011;12205;50.600;4.608;2023-07-20T12:43:40;3.85;;;0.30;;
23990;SDS011;12205;50.600;4.608;2023-07-20T12:46:08;1.92;;;0.30;;
23990;SDS011;12205;50.600;4.608;2023-07-20T12:48:39;1.30;;;0.30;;
23990;SDS011;12205;50.600;4.608;2023-07-20T12:51:08;3.80;;;0.30;;
23990;SDS011;12205;50.600;4.608;2023-07-20T12:53:37;6.15;;;0.20;;
23990;SDS011;12205;50.600;4.608;2023-07-20T12:56:04;1.52;;;0.20;;
23990;SDS011;12205;50.600;4.608;2023-07-20T12:58:32;1.23;;;0.20;;
23990;SDS011;12205;50.600;4.608;2023-07-20T13:01:00;3.65;;;0.35;;
23990;SDS011;12205;50.600;4.608;2023-07-20T13:03:27;1.65;;;0.22;;
23990;SDS011;12205;50.600;4.608;2023-07-20T13:05:55;1.80;;;0.20;;
23990;SDS011;12205;50.600;4.608;2023-07-20T13:08:23;4.45;;;0.57;;
23990;SDS011;12205;50.600;4.608;2023-07-20T13:10:52;2.67;;;0.25;;
23990;SDS011;12205;50.600;4.608;2023-07-20T13:13:19;5.25;;;0.30;;
23990;SDS011;12205;50.600;4.608;2023-07-20T13:15:46;2.10;;;0.20;;
23990;SDS011;12205;50.600;4.608;2023-07-20T13:18:14;1.67;;;0.20;;
23990;SDS011;12205;50.600;4.608;2023-07-20T13:20:41;4.47;;;0.20;;
23990;SDS011;12205;50.600;4.608;2023-07-20T13:23:09;1.75;;;0.30;;
23990;SDS011;12205;50.600;4.608;2023-07-20T13:25:36;2.30;;;0.30;;
23990;SDS011;12205;50.600;4.608;2023-07-20T13:28:04;2.30;;;0.25;;
23990;SDS011;12205;50.600;4.608;2023-07-20T13:30:31;2.08;;;0.20;;
23990;SDS011;12205;50.600;4.608;2023-07-20T13:32:59;1.42;;;0.20;;
23990;SDS011;12205;50.600;4.608;2023-07-20T13:35:26;0.73;;;0.20;;
23990;SDS011;12205;50.600;4.608;2023-07-20T13:37:53;1.80;;;0.20;;
23990;SDS011;12205;50.600;4.608;2023-07-20T13:40:22;4.13;;;0.20;;
23990;SDS011;12205;50.600;4.608;2023-07-20T13:42:49;3.60;;;0.30;;
23990;SDS011;12205;50.600;4.608;2023-07-20T13:45:17;3.45;;;0.32;;
23990;SDS011;12205;50.600;4.608;2023-07-20T13:47:44;3.17;;;0.20;;
23990;SDS011;12205;50.600;4.608;2023-07-20T13:50:11;3.53;;;0.20;;
23990;SDS011;12205;50.600;4.608;2023-07-20T13:52:38;2.05;;;0.20;;
23990;SDS011;12205;50.600;4.608;2023-07-20T13:55:06;1.85;;;0.30;;
23990;SDS011;12205;50.600;4.608;2023-07-20T13:57:35;2.10;;;0.20;;
23990;SDS011;12205;50.600;4.608;2023-07-20T14:00:03;2.58;;;0.20;;
23990;SDS011;12205;50.600;4.608;2023-07-20T14:02:37;1.85;;;0.15;;
23990;SDS011;12205;50.600;4.608;2023-07-20T14:05:05;1.10;;;0.20;;
23990;SDS011;12205;50.600;4.608;2023-07-20T14:07:33;3.03;;;0.20;;
23990;SDS011;12205;50.600;4.608;2023-07-20T14:10:01;0.50;;;0.20;;
23990;SDS011;12205;50.600;4.608;2023-07-20T14:12:28;2.22;;;0.22;;
23990;SDS011;12205;50.600;4.608;2023-07-20T14:14:57;3.08;;;0.22;;
23990;SDS011;12205;50.600;4.608;2023-07-20T14:17:24;2.53;;;0.35;;
23990;SDS011;12205;50.600;4.608;2023-07-20T14:19:51;1.20;;;0.15;;
23990;SDS011;12205;50.600;4.608;2023-07-20T14:22:19;4.60;;;0.40;;
23990;SDS011;12205;50.600;4.608;2023-07-20T14:24:46;1.65;;;0.20;;
23990;SDS011;12205;50.600;4.608;2023-07-20T14:27:13;2.58;;;0.40;;
23990;SDS011;12205;50.600;4.608;2023-07-20T14:29:41;5.70;;;0.47;;
23990;SDS011;12205;50.600;4.608;2023-07-20T14:32:09;6.47;;;0.40;;
23990;SDS011;12205;50.600;4.608;2023-07-20T14:34:37;3.08;;;0.40;;
23990;SDS011;12205;50.600;4.608;2023-07-20T14:37:05;3.90;;;0.40;;
23990;SDS011;12205;50.600;4.608;2023-07-20T14:39:33;2.13;;;0.50;;
23990;SDS011;12205;50.600;4.608;2023-07-20T14:42:00;0.90;;;0.20;;
23990;SDS011;12205;50.600;4.608;2023-07-20T14:44:28;2.13;;;0.25;;
23990;SDS011;12205;50.600;4.608;2023-07-20T14:46:56;2.55;;;0.30;;
23990;SDS011;12205;50.600;4.608;2023-07-20T14:49:24;2.97;;;0.30;;
23990;SDS011;12205;50.600;4.608;2023-07-20T14:51:52;2.90;;;0.20;;
23990;SDS011;12205;50.600;4.608;2023-07-20T14:54:19;2.00;;;0.17;;
23990;SDS011;12205;50.600;4.608;2023-07-20T14:56:48;2.65;;;0.35;;
23990;SDS011;12205;50.600;4.608;2023-07-20T14:59:18;1.02;;;0.28;;